Tuesday, August 21, 2018, 12:04 AM GMT
Back to Local

CWTN, Cap Tourmente

Location: , , Canada Lat: 47.067
Local Time: 12:04 AM GMT ( 0:04 GMT) Lon: -70.8
Time Zone: GMT Elev: 19 ft

Show me the last for .
Show Coded

Time T Td Feel RH Dir Speed Gust Alt SLP Vis Weather Sky Remarks
2018-08-20 23:00 67 60 - 79 320° 2 - - 30.09 0 None
2018-08-20 22:00 73 61 77 64 340° 2 - - 30.09 0 None
2018-08-20 21:00 80 57 81 46 260° 3 - - 30.09 0 None
2018-08-20 20:00 80 58 81 46 240° 3 - - 30.10 0 None
2018-08-20 19:00 79 62 80 57 150° 3 - - 30.11 0 None
2018-08-20 18:00 78 65 81 63 170° 5 - - 30.14 0 None
2018-08-20 17:00 77 60 79 55 200° 3 - - 30.15 0 None
2018-08-20 16:00 75 64 78 68 200° 5 - - 30.16 0 None
2018-08-20 15:00 72 61 76 67 190° 3 - - 30.18 0 None
2018-08-20 14:00 71 60 76 68 210° 2 - - 30.19 0 None
2018-08-20 13:00 69 59 - 70 250° 3 - - 30.19 0 None
2018-08-20 12:00 65 58 - 76 280° 2 - - 30.19 0 None
2018-08-20 11:00 59 54 - 83 330° 5 - - 30.19 0 None
2018-08-20 10:00 56 52 - 87 320° 2 - - 30.19 0 None
2018-08-20 09:00 56 52 - 87 310° 3 - - 30.17 0 None
2018-08-20 08:00 58 53 - 83 340° 3 - - 30.16 0 None
2018-08-20 07:00 58 53 - 83 340° 2 - - 30.16 0 None
2018-08-20 06:00 59 53 - 82 340° 3 - - 30.16 0 None
2018-08-20 05:00 58 53 - 84 310° 2 - - 30.16 0 None
2018-08-20 04:00 61 54 - 76 50° 2 - - 30.14 0 None
2018-08-20 03:00 55 53 - 94 330° 1 - - 30.13 0 None
2018-08-20 02:00 58 55 - 88 320° 1 - - 30.13 0 None
2018-08-20 01:00 57 57 - 97 340° 1 - - 30.12 0 None

Support USWX by starting your Amazon purchase here.